Time;durP1;ratioP1;P1;durP2;ratioP2;P2;SDS_P1;SDS_P2;PMS_P1;PMS_P2;Temp;Humidity;BMP_temperature;BMP_pressure;BME280_temperature;BME280_humidity;BME280_pressure;Samples;Min_cycle;Max_cycle;Signal;HPM_P1;HPM_P2
2024/03/23 00:00:53;;;;;;;;;;;;;;;13.08;51.94;97308.97;5047538;28;19924;-82
2024/03/23 00:03:21;;;;;;;;;;;;;;;13.06;52.10;97311.25;5087203;28;20549;-81
2024/03/23 00:05:50;;;;;;;;;;;;;;;13.02;52.37;97302.16;5050576;28;19925;-80
2024/03/23 00:08:17;;;;;;;;;;;;;;;13.00;52.57;97304.44;5045654;28;20001;-80
2024/03/23 00:10:47;;;;;;;;;;;;;;;12.95;52.47;97299.19;5037128;28;19928;-81
2024/03/23 00:13:14;;;;;;;;;;;;;;;12.95;52.96;97299.19;5064317;28;20028;-81
2024/03/23 00:15:43;;;;;;;;;;;;;;;12.92;52.76;97297.16;5055576;28;19932;-81
2024/03/23 00:18:14;;;;;;;;;;;;;;;12.89;53.13;97289.66;5066016;28;20658;-81
2024/03/23 00:20:42;;;;;;;;;;;;;;;12.87;53.00;97286.47;5051936;28;19929;-80
2024/03/23 00:23:08;;;;;;;;;;;;;;;12.83;53.11;97280.91;5067756;28;20423;-81
2024/03/23 00:25:35;;;;;;;;;;;;;;;12.82;53.21;97267.63;5031706;28;19924;-81
2024/03/23 00:28:02;;;;;;;;;;;;;;;12.79;53.37;97279.22;5055123;28;19931;-80
2024/03/23 00:30:29;;;;;;;;;;;;;;;12.74;53.31;97271.28;5063188;28;20482;-81
2024/03/23 00:32:59;;;;;;;;;;;;;;;12.75;53.37;97262.75;5040876;28;19928;-80
2024/03/23 00:35:27;;;;;;;;;;;;;;;12.71;53.36;97261.81;5049097;28;19990;-81
2024/03/23 00:37:55;;;;;;;;;;;;;;;12.71;53.35;97258.31;5025383;28;20015;-81
2024/03/23 00:40:25;;;;;;;;;;;;;;;12.70;53.56;97251.28;5034191;28;19924;-81
2024/03/23 00:42:53;;;;;;;;;;;;;;;12.61;53.59;97240.47;5057231;28;19973;-81
2024/03/23 00:45:21;;;;;;;;;;;;;;;12.57;53.81;97234.94;5056934;28;20300;-83
2024/03/23 00:47:50;;;;;;;;;;;;;;;12.51;53.98;97230.03;5052243;28;19940;-88
2024/03/23 00:50:17;;;;;;;;;;;;;;;12.55;53.73;97223.56;5080057;28;20383;-88
2024/03/23 00:52:45;;;;;;;;;;;;;;;12.52;53.74;97221.53;5057607;28;20015;-90
2024/03/23 00:55:12;;;;;;;;;;;;;;;12.57;53.96;97213.13;5037819;28;19924;-91
2024/03/23 00:57:38;;;;;;;;;;;;;;;12.45;54.29;97201.41;5046520;28;19973;-91
2024/03/23 01:00:06;;;;;;;;;;;;;;;12.44;54.16;97197.91;5073840;28;19925;-90
2024/03/23 01:02:34;;;;;;;;;;;;;;;12.32;54.54;97200.63;5051568;28;19924;-90
2024/03/23 01:05:02;;;;;;;;;;;;;;;12.36;54.44;97196.09;5045330;28;20031;-91
2024/03/23 01:07:30;;;;;;;;;;;;;;;12.36;54.72;97189.84;5068204;28;24768;-83
2024/03/23 01:09:56;;;;;;;;;;;;;;;12.38;54.82;97187.59;5045408;28;20026;-83
2024/03/23 01:12:22;;;;;;;;;;;;;;;12.29;55.25;97180.31;5077929;28;19924;-83
2024/03/23 01:14:49;;;;;;;;;;;;;;;12.24;55.36;97182.47;5055595;28;19932;-83
2024/03/23 01:17:15;;;;;;;;;;;;;;;12.20;55.31;97185.09;5042225;28;19925;-82
2024/03/23 01:19:42;;;;;;;;;;;;;;;12.19;55.06;97190.84;5055722;28;19931;-87
2024/03/23 01:22:09;;;;;;;;;;;;;;;12.23;55.20;97180.88;5036788;28;19925;-83
2024/03/23 01:24:37;;;;;;;;;;;;;;;12.13;55.28;97170.44;5035324;28;20027;-84
2024/03/23 01:27:03;;;;;;;;;;;;;;;12.08;55.69;97168.72;5062824;28;19951;-83
2024/03/23 01:29:30;;;;;;;;;;;;;;;12.12;55.37;97169.63;5065430;28;19924;-84
2024/03/23 01:31:56;;;;;;;;;;;;;;;12.07;55.35;97165.22;5060157;28;19932;-84
2024/03/23 01:34:24;;;;;;;;;;;;;;;12.10;55.38;97165.69;5064288;28;19923;-83
2024/03/23 01:36:50;;;;;;;;;;;;;;;12.06;55.37;97163.63;5055540;28;19936;-84
2024/03/23 01:39:19;;;;;;;;;;;;;;;12.08;55.60;97171.44;5055969;28;19931;-84
2024/03/23 01:41:44;;;;;;;;;;;;;;;12.06;55.40;97166.34;5051467;28;20442;-85
2024/03/23 01:44:11;;;;;;;;;;;;;;;12.05;55.41;97159.31;5038265;28;20270;-85
2024/03/23 01:46:38;;;;;;;;;;;;;;;12.03;55.68;97156.13;5025844;28;19928;-85
2024/03/23 01:49:05;;;;;;;;;;;;;;;11.95;55.63;97159.75;5042634;28;19986;-85
2024/03/23 01:51:30;;;;;;;;;;;;;;;11.91;55.56;97156.09;5051856;28;20281;-85
2024/03/23 01:53:57;;;;;;;;;;;;;;;11.88;55.64;97148.63;5050467;28;19930;-85
2024/03/23 01:56:25;;;;;;;;;;;;;;;11.90;55.74;97143.63;5033249;28;19924;-86
2024/03/23 01:58:52;;;;;;;;;;;;;;;11.95;55.69;97137.97;5049971;28;19971;-86
2024/03/23 02:01:19;;;;;;;;;;;;;;;11.92;55.98;97132.41;5041094;28;20101;-86
2024/03/23 02:03:46;;;;;;;;;;;;;;;11.96;55.77;97134.13;5065592;28;19928;-86
2024/03/23 02:06:11;;;;;;;;;;;;;;;11.91;56.16;97134.34;5055811;28;19927;-86
2024/03/23 02:08:38;;;;;;;;;;;;;;;11.81;56.40;97121.13;5053076;28;19940;-86
2024/03/23 02:11:05;;;;;;;;;;;;;;;11.89;56.31;97123.00;5053002;28;20442;-87
2024/03/23 02:13:33;;;;;;;;;;;;;;;11.87;56.41;97122.53;5040103;28;19940;-86
2024/03/23 02:15:59;;;;;;;;;;;;;;;11.90;56.39;97102.03;5049876;28;19977;-82
2024/03/23 02:18:25;;;;;;;;;;;;;;;11.91;55.97;97103.59;5040477;28;19932;-84
2024/03/23 02:20:51;;;;;;;;;;;;;;;11.85;56.40;97100.31;5036064;28;19983;-85
2024/03/23 02:23:21;;;;;;;;;;;;;;;11.81;56.29;97102.09;5051452;28;20453;-83
2024/03/23 02:25:47;;;;;;;;;;;;;;;11.80;56.25;97101.28;5048929;28;19924;-85
2024/03/23 02:28:14;;;;;;;;;;;;;;;11.85;56.54;97097.59;5054072;28;19963;-85
2024/03/23 02:30:39;;;;;;;;;;;;;;;11.86;56.34;97071.16;5071912;28;19928;-85
2024/03/23 02:33:06;;;;;;;;;;;;;;;11.84;56.51;97071.50;5042242;28;19924;-84
2024/03/23 02:35:35;;;;;;;;;;;;;;;11.86;56.53;97068.44;5048269;28;19980;-85
2024/03/23 02:38:02;;;;;;;;;;;;;;;11.82;56.46;97071.03;5040959;28;20296;-84
2024/03/23 02:40:34;;;;;;;;;;;;;;;11.86;56.64;97063.78;5039837;28;19923;-84
2024/03/23 02:43:02;;;;;;;;;;;;;;;11.84;56.63;97055.19;5042393;28;19925;-85
2024/03/23 02:45:28;;;;;;;;;;;;;;;11.78;57.00;97057.31;5037931;28;19931;-85
2024/03/23 02:47:55;;;;;;;;;;;;;;;11.86;56.52;97058.34;5041590;28;19925;-84
2024/03/23 02:50:21;;;;;;;;;;;;;;;11.86;56.55;97047.47;5037016;28;19936;-84
2024/03/23 02:52:47;;;;;;;;;;;;;;;11.91;56.42;97043.72;5044481;28;19975;-85
2024/03/23 02:55:13;;;;;;;;;;;;;;;11.87;56.52;97042.81;5041946;28;19963;-84
2024/03/23 02:57:42;;;;;;;;;;;;;;;11.88;56.65;97039.78;5023326;28;19931;-84
2024/03/23 03:00:10;;;;;;;;;;;;;;;11.86;56.64;97035.78;5038277;28;20390;-84
2024/03/23 03:03:07;;;;;;;;;;;;;;;11.79;56.97;97030.88;5048919;28;19932;-85
2024/03/23 03:05:58;;;;;;;;;;;;;;;11.80;56.87;97021.59;5078715;28;19946;-86
2024/03/23 03:08:25;;;;;;;;;;;;;;;11.76;57.27;97015.22;5081493;28;19909;-83
2024/03/23 03:10:51;;;;;;;;;;;;;;;11.75;57.05;97014.44;5081373;28;19971;-83
2024/03/23 03:13:19;;;;;;;;;;;;;;;11.78;57.17;97002.88;5084369;28;19920;-85
2024/03/23 03:15:45;;;;;;;;;;;;;;;11.80;57.12;97006.03;5095751;27;19928;-83
2024/03/23 03:18:12;;;;;;;;;;;;;;;11.75;56.91;96997.31;5079953;28;19931;-84
2024/03/23 03:20:39;;;;;;;;;;;;;;;11.73;57.13;96999.59;5075565;28;19929;-84
2024/03/23 03:23:05;;;;;;;;;;;;;;;11.78;57.27;97011.06;5053527;28;19929;-83
2024/03/23 03:25:31;;;;;;;;;;;;;;;11.85;57.39;97010.50;5044944;28;20369;-85
2024/03/23 03:27:58;;;;;;;;;;;;;;;11.84;57.46;97005.41;5029942;28;19924;-81
2024/03/23 03:30:26;;;;;;;;;;;;;;;11.86;57.89;96993.03;5042167;28;19978;-82
2024/03/23 03:32:54;;;;;;;;;;;;;;;11.82;57.81;96975.78;5076649;28;19929;-81
2024/03/23 03:35:20;;;;;;;;;;;;;;;11.85;58.05;96968.88;5044963;28;19925;-82
2024/03/23 03:37:47;;;;;;;;;;;;;;;11.58;58.38;96970.34;5046511;28;19932;-82
2024/03/23 03:40:14;;;;;;;;;;;;;;;11.62;58.46;96957.66;5044325;28;19937;-82
2024/03/23 03:42:41;;;;;;;;;;;;;;;11.60;58.46;96965.34;5046639;28;19929;-82
2024/03/23 03:45:08;;;;;;;;;;;;;;;11.59;58.80;96961.06;5046454;28;19928;-82
2024/03/23 03:47:36;;;;;;;;;;;;;;;11.63;58.68;96956.53;5050698;28;19971;-81
2024/03/23 03:50:02;;;;;;;;;;;;;;;11.65;58.69;96959.69;5061735;28;20279;-81
2024/03/23 03:52:28;;;;;;;;;;;;;;;11.66;58.69;96958.53;5051062;28;19924;-81
2024/03/23 03:54:59;;;;;;;;;;;;;;;11.63;58.74;96959.25;5048281;28;19936;-81
2024/03/23 03:57:26;;;;;;;;;;;;;;;11.69;58.77;96947.00;5045749;28;19933;-81
2024/03/23 03:59:52;;;;;;;;;;;;;;;11.70;58.60;96933.03;5038504;28;19932;-81
2024/03/23 04:02:18;;;;;;;;;;;;;;;11.64;58.85;96928.19;5039965;28;19932;-83
2024/03/23 04:04:46;;;;;;;;;;;;;;;11.63;58.89;96919.22;5054961;28;19928;-81
2024/03/23 04:07:13;;;;;;;;;;;;;;;11.70;58.81;96910.47;5048569;28;19928;-82
2024/03/23 04:09:39;;;;;;;;;;;;;;;11.64;58.79;96899.03;5085705;28;19932;-82
2024/03/23 04:12:06;;;;;;;;;;;;;;;11.65;58.36;96888.94;5032302;28;19924;-82
2024/03/23 04:14:32;;;;;;;;;;;;;;;11.64;58.59;96881.94;5045478;28;19928;-83
2024/03/23 04:16:58;;;;;;;;;;;;;;;11.58;58.61;96870.50;5025289;28;20847;-84
2024/03/23 04:19:24;;;;;;;;;;;;;;;11.59;58.44;96882.94;5033137;28;19924;-84
2024/03/23 04:21:53;;;;;;;;;;;;;;;11.59;58.46;96871.28;5042007;28;20012;-85
2024/03/23 04:24:22;;;;;;;;;;;;;;;11.48;58.93;96882.63;5042633;28;19928;-84
2024/03/23 04:26:49;;;;;;;;;;;;;;;11.49;58.94;96870.63;5043315;28;19935;-84
2024/03/23 04:32:52;;;;;;;;;;;;;;;11.53;58.39;96882.41;5057696;28;19927;-85
2024/03/23 04:35:19;;;;;;;;;;;;;;;11.61;58.32;96886.16;5026249;28;19946;-85
2024/03/23 04:37:49;;;;;;;;;;;;;;;11.59;58.45;96879.44;5083735;28;20048;-83
2024/03/23 04:40:15;;;;;;;;;;;;;;;11.63;58.38;96883.06;5043924;28;20390;-83
2024/03/23 04:42:42;;;;;;;;;;;;;;;11.66;58.13;96895.97;5054968;28;20419;-83
2024/03/23 04:45:10;;;;;;;;;;;;;;;11.71;58.37;96887.56;5059204;28;19925;-83
2024/03/23 04:47:37;;;;;;;;;;;;;;;11.71;57.78;96899.25;5050437;28;19929;-83
2024/03/23 04:50:04;;;;;;;;;;;;;;;11.58;58.11;96888.75;5038591;28;20391;-83
2024/03/23 04:55:43;;;;;;;;;;;;;;;11.56;58.34;96883.66;5048343;28;19940;-83
2024/03/23 04:58:09;;;;;;;;;;;;;;;11.59;58.14;96866.63;5047047;28;19924;-83
2024/03/23 05:00:35;;;;;;;;;;;;;;;11.53;58.24;96874.25;5041871;28;20269;-84
2024/03/23 05:03:03;;;;;;;;;;;;;;;11.42;58.55;96878.56;5063553;28;19931;-84
2024/03/23 05:05:29;;;;;;;;;;;;;;;11.45;58.48;96886.06;5047347;28;19967;-83
2024/03/23 05:07:55;;;;;;;;;;;;;;;11.50;58.68;96885.81;5039460;28;19924;-84
2024/03/23 05:10:22;;;;;;;;;;;;;;;11.51;58.61;96881.97;5040371;28;19951;-85
2024/03/23 05:12:51;;;;;;;;;;;;;;;11.62;58.07;96879.56;5081107;28;19925;-84
2024/03/23 05:15:43;;;;;;;;;;;;;;;11.63;57.86;96872.97;5051698;28;20372;-84
2024/03/23 05:18:10;;;;;;;;;;;;;;;11.68;58.08;96871.97;5024550;28;19925;-84
2024/03/23 05:20:36;;;;;;;;;;;;;;;11.74;57.92;96868.66;5058445;28;19947;-84
2024/03/23 05:23:02;;;;;;;;;;;;;;;11.88;57.61;96860.16;5039458;28;19929;-85
2024/03/23 05:25:29;;;;;;;;;;;;;;;12.03;57.36;96855.88;5036376;28;20037;-85
2024/03/23 05:27:57;;;;;;;;;;;;;;;12.15;56.97;96842.22;5052878;28;20027;-82
2024/03/23 05:30:23;;;;;;;;;;;;;;;12.23;56.63;96835.03;5037928;28;19929;-81
2024/03/23 05:32:50;;;;;;;;;;;;;;;12.25;56.70;96830.03;5060638;28;19924;-82
2024/03/23 05:35:16;;;;;;;;;;;;;;;12.29;56.90;96826.25;5057439;28;19924;-82
2024/03/23 05:37:44;;;;;;;;;;;;;;;12.40;56.63;96832.00;5045911;28;19931;-81
2024/03/23 05:40:12;;;;;;;;;;;;;;;12.44;56.51;96830.16;5074536;28;20406;-92
2024/03/23 05:42:39;;;;;;;;;;;;;;;12.53;56.24;96835.44;5044201;28;20292;-82
2024/03/23 05:45:07;;;;;;;;;;;;;;;12.51;56.26;96838.50;5046878;28;19932;-82
2024/03/23 05:47:34;;;;;;;;;;;;;;;12.59;55.99;96832.09;5029912;28;19936;-87
2024/03/23 05:50:01;;;;;;;;;;;;;;;12.57;56.19;96837.13;5048198;28;19925;-87
2024/03/23 05:52:28;;;;;;;;;;;;;;;12.64;55.97;96839.25;5057347;28;19924;-84
2024/03/23 05:54:55;;;;;;;;;;;;;;;12.62;55.95;96838.00;5039725;28;19925;-82
2024/03/23 05:57:22;;;;;;;;;;;;;;;12.67;56.07;96840.47;5043315;28;19936;-85
2024/03/23 06:03:03;;;;;;;;;;;;;;;12.62;55.89;96824.38;5033015;28;20358;-87
2024/03/23 06:05:29;;;;;;;;;;;;;;;12.63;56.29;96828.69;5049991;28;19924;-84
2024/03/23 06:07:56;;;;;;;;;;;;;;;12.58;56.17;96835.97;5038314;28;19971;-85
2024/03/23 06:10:22;;;;;;;;;;;;;;;12.61;55.96;96841.88;5039639;28;20313;-85
2024/03/23 06:12:51;;;;;;;;;;;;;;;12.61;56.12;96833.69;5056999;28;20431;-85
2024/03/23 06:15:18;;;;;;;;;;;;;;;12.54;56.69;96847.94;5046173;28;19925;-84
2024/03/23 06:17:44;;;;;;;;;;;;;;;12.45;59.49;96844.56;5033005;28;19937;-84
2024/03/23 06:20:13;;;;;;;;;;;;;;;12.40;61.06;96847.53;5090389;28;19925;-85
2024/03/23 06:22:40;;;;;;;;;;;;;;;12.48;62.28;96846.59;5058403;28;20023;-85
2024/03/23 06:25:06;;;;;;;;;;;;;;;12.33;63.30;96843.50;5050997;28;19950;-87
2024/03/23 06:27:33;;;;;;;;;;;;;;;12.22;64.18;96836.97;5062408;28;20438;-87
2024/03/23 06:29:59;;;;;;;;;;;;;;;12.08;64.95;96844.75;5041060;28;19924;-86
2024/03/23 06:32:26;;;;;;;;;;;;;;;12.12;65.66;96850.28;5034308;28;19947;-83
2024/03/23 06:34:51;;;;;;;;;;;;;;;12.18;65.29;96849.69;5079956;28;19951;-83
2024/03/23 06:37:20;;;;;;;;;;;;;;;12.13;65.03;96851.88;5060062;28;19948;-90
2024/03/23 06:39:46;;;;;;;;;;;;;;;12.28;64.57;96851.13;5095950;28;19913;-89
2024/03/23 06:42:13;;;;;;;;;;;;;;;12.37;64.57;96857.22;5094305;28;20046;-88
2024/03/23 06:44:40;;;;;;;;;;;;;;;12.43;64.09;96847.66;5027833;28;19959;-92
2024/03/23 06:47:07;;;;;;;;;;;;;;;12.40;64.78;96842.88;5027859;28;19932;-91
2024/03/23 06:49:33;;;;;;;;;;;;;;;12.37;64.46;96837.38;5040324;28;19931;-90
2024/03/23 06:52:00;;;;;;;;;;;;;;;12.40;63.99;96837.44;5028167;28;19925;-92
2024/03/23 06:54:30;;;;;;;;;;;;;;;12.51;63.93;96827.59;5026472;28;19947;-90
2024/03/23 06:56:57;;;;;;;;;;;;;;;12.53;63.77;96838.19;5037702;28;19932;-85
2024/03/23 06:59:23;;;;;;;;;;;;;;;12.61;63.37;96831.75;5055149;28;19925;-83
2024/03/23 07:01:50;;;;;;;;;;;;;;;12.56;63.11;96832.81;5036034;28;20367;-83
2024/03/23 07:04:16;;;;;;;;;;;;;;;12.38;63.01;96844.38;5068564;28;19925;-84
2024/03/23 07:06:43;;;;;;;;;;;;;;;12.29;63.59;96837.16;5051309;28;19974;-84
2024/03/23 07:09:10;;;;;;;;;;;;;;;12.13;63.80;96854.59;5040184;28;19924;-81
2024/03/23 07:11:37;;;;;;;;;;;;;;;12.28;63.89;96868.25;5063090;28;19973;-88
2024/03/23 07:14:04;;;;;;;;;;;;;;;12.24;63.36;96864.63;5082091;28;19932;-85
2024/03/23 07:16:33;;;;;;;;;;;;;;;12.10;63.09;96866.19;5027202;28;19931;-85
2024/03/23 07:19:00;;;;;;;;;;;;;;;12.15;62.82;96865.94;5058798;28;19970;-85
2024/03/23 07:21:26;;;;;;;;;;;;;;;11.97;62.89;96889.94;5049165;28;19996;-85
2024/03/23 07:23:53;;;;;;;;;;;;;;;11.96;63.52;96880.97;5047602;28;19925;-85
2024/03/23 07:26:18;;;;;;;;;;;;;;;12.10;62.16;96877.88;5063746;28;19929;-82
2024/03/23 07:28:47;;;;;;;;;;;;;;;12.26;62.33;96883.38;5060575;28;19935;-83
2024/03/23 07:31:14;;;;;;;;;;;;;;;12.04;62.49;96885.50;5071477;28;19924;-83
2024/03/23 07:33:42;;;;;;;;;;;;;;;11.96;62.12;96883.69;5051283;28;19978;-83
2024/03/23 07:36:08;;;;;;;;;;;;;;;11.84;62.88;96881.00;5053114;28;19924;-83
2024/03/23 07:38:36;;;;;;;;;;;;;;;11.92;63.08;96882.00;5031553;28;19979;-84
2024/03/23 07:41:05;;;;;;;;;;;;;;;11.79;63.21;96883.94;5035732;28;19931;-95
2024/03/23 07:43:32;;;;;;;;;;;;;;;11.78;63.09;96893.25;5046678;28;19932;-91
2024/03/23 07:45:59;;;;;;;;;;;;;;;11.75;63.45;96893.91;5037095;28;19963;-81
2024/03/23 07:48:26;;;;;;;;;;;;;;;11.63;63.42;96900.19;5023738;28;19924;-83
2024/03/23 07:50:59;;;;;;;;;;;;;;;11.45;63.89;96907.81;5044674;28;20283;-85
2024/03/23 07:53:26;;;;;;;;;;;;;;;11.52;64.07;96912.66;5085255;28;19982;-83
2024/03/23 07:55:55;;;;;;;;;;;;;;;11.62;63.80;96916.84;5046841;28;20398;-84
2024/03/23 07:58:22;;;;;;;;;;;;;;;11.66;64.38;96923.97;5042555;28;20286;-84
2024/03/23 08:00:53;;;;;;;;;;;;;;;11.72;63.79;96917.19;5027587;28;19975;-83
2024/03/23 08:03:21;;;;;;;;;;;;;;;11.89;63.94;96916.16;5033621;28;19925;-81
2024/03/23 08:05:48;;;;;;;;;;;;;;;11.80;63.57;96913.53;5040990;28;19924;-86
2024/03/23 08:08:15;;;;;;;;;;;;;;;11.87;63.91;96912.19;5039857;28;19928;-88
2024/03/23 08:10:47;;;;;;;;;;;;;;;11.86;63.40;96910.59;5069229;28;19925;-76
2024/03/23 08:13:14;;;;;;;;;;;;;;;11.95;63.73;96914.78;5073299;28;19925;-76
2024/03/23 08:15:40;;;;;;;;;;;;;;;11.84;63.84;96919.13;5045479;28;19924;-77
2024/03/23 08:18:07;;;;;;;;;;;;;;;11.68;65.32;96918.22;5044785;28;19936;-77
2024/03/23 08:20:34;;;;;;;;;;;;;;;11.67;65.41;96938.41;5041967;28;19925;-87
2024/03/23 08:23:05;;;;;;;;;;;;;;;11.51;66.47;96965.50;5063041;28;19965;-83
2024/03/23 08:25:31;;;;;;;;;;;;;;;11.34;69.20;96993.66;5034583;28;19925;-78
2024/03/23 08:27:58;;;;;;;;;;;;;;;10.66;69.34;97020.47;5041241;28;20287;-82
2024/03/23 08:30:24;;;;;;;;;;;;;;;10.52;69.88;97026.16;5038710;28;19925;-81
2024/03/23 08:32:50;;;;;;;;;;;;;;;10.52;69.36;97038.94;5029555;28;19959;-90
2024/03/23 08:35:16;;;;;;;;;;;;;;;10.27;68.90;97052.38;5031966;28;19932;-90
2024/03/23 08:37:44;;;;;;;;;;;;;;;10.02;69.85;97056.03;5020978;28;19925;-90
2024/03/23 08:40:11;;;;;;;;;;;;;;;10.23;68.83;97059.59;5041026;28;19925;-89
2024/03/23 08:42:38;;;;;;;;;;;;;;;10.11;67.35;97073.03;5026647;28;19924;-89
2024/03/23 08:45:04;;;;;;;;;;;;;;;9.95;67.05;97092.59;5046171;28;19925;-90
2024/03/23 08:47:33;;;;;;;;;;;;;;;9.96;66.15;97098.84;5037987;28;19928;-89
2024/03/23 08:49:59;;;;;;;;;;;;;;;9.85;66.33;97108.44;5049135;28;19986;-89
2024/03/23 08:52:28;;;;;;;;;;;;;;;9.85;65.31;97103.03;5052725;28;19929;-89
2024/03/23 08:54:56;;;;;;;;;;;;;;;9.81;66.15;97119.16;5066898;28;19935;-90
2024/03/23 08:57:22;;;;;;;;;;;;;;;9.87;65.85;97109.72;5052725;28;19928;-84
2024/03/23 08:59:51;;;;;;;;;;;;;;;9.95;65.28;97130.59;5057923;28;19929;-83
2024/03/23 09:02:18;;;;;;;;;;;;;;;9.97;65.34;97128.34;5043497;28;19924;-83
2024/03/23 09:04:44;;;;;;;;;;;;;;;10.04;64.89;97154.19;5052241;28;19924;-84
2024/03/23 09:07:11;;;;;;;;;;;;;;;10.25;64.41;97162.44;5023751;28;19951;-83
2024/03/23 09:09:38;;;;;;;;;;;;;;;10.07;63.25;97159.78;5047240;28;20401;-84
2024/03/23 09:12:06;;;;;;;;;;;;;;;9.98;63.31;97161.72;5045440;28;20268;-81
2024/03/23 09:14:33;;;;;;;;;;;;;;;9.75;63.77;97174.72;5056487;28;19929;-81
2024/03/23 09:16:59;;;;;;;;;;;;;;;9.83;63.71;97173.09;5048024;28;19925;-82
2024/03/23 09:19:26;;;;;;;;;;;;;;;9.65;63.71;97200.28;5055853;28;19929;-82
2024/03/23 09:21:54;;;;;;;;;;;;;;;9.66;64.07;97199.16;5038517;28;19928;-82
2024/03/23 09:24:19;;;;;;;;;;;;;;;9.62;63.18;97197.41;5035710;28;19925;-82
2024/03/23 09:26:46;;;;;;;;;;;;;;;9.65;62.69;97218.47;5070411;28;20324;-81
2024/03/23 09:29:13;;;;;;;;;;;;;;;9.51;61.35;97210.50;5040252;28;20319;-82
2024/03/23 09:31:40;;;;;;;;;;;;;;;9.43;61.54;97205.91;5048570;28;19924;-82
2024/03/23 09:34:06;;;;;;;;;;;;;;;9.45;62.09;97209.88;5049038;28;20372;-83
2024/03/23 09:36:33;;;;;;;;;;;;;;;9.43;61.81;97212.13;5055193;28;19985;-83
2024/03/23 09:39:01;;;;;;;;;;;;;;;9.32;61.89;97200.00;5046916;28;19925;-84
2024/03/23 09:41:28;;;;;;;;;;;;;;;9.50;62.25;97218.97;5032457;28;19979;-82
2024/03/23 09:43:54;;;;;;;;;;;;;;;9.48;60.06;97235.56;5028648;28;19924;-83
2024/03/23 09:46:22;;;;;;;;;;;;;;;9.42;60.54;97242.22;5040257;28;20313;-83
2024/03/23 09:48:48;;;;;;;;;;;;;;;9.36;59.86;97238.88;5071640;28;19924;-83
2024/03/23 09:51:15;;;;;;;;;;;;;;;9.41;59.67;97236.00;5034919;28;20015;-83
2024/03/23 09:53:41;;;;;;;;;;;;;;;9.61;57.62;97247.34;5048390;28;19924;-84
2024/03/23 09:56:08;;;;;;;;;;;;;;;9.43;58.55;97239.22;5018474;28;19929;-83
2024/03/23 09:58:34;;;;;;;;;;;;;;;9.56;57.58;97231.22;5046787;28;20376;-82
2024/03/23 10:01:00;;;;;;;;;;;;;;;9.81;57.71;97235.03;5041130;28;19946;-80
2024/03/23 10:03:28;;;;;;;;;;;;;;;9.97;56.29;97244.25;5054761;28;19935;-83
2024/03/23 10:06:01;;;;;;;;;;;;;;;9.91;55.12;97254.47;5053973;28;19925;-84
2024/03/23 10:08:29;;;;;;;;;;;;;;;9.84;55.60;97259.56;5037027;28;20023;-89
2024/03/23 10:10:55;;;;;;;;;;;;;;;9.78;55.73;97269.00;5040364;28;20008;-87
2024/03/23 10:13:25;;;;;;;;;;;;;;;9.79;55.64;97278.72;5080525;28;19932;-77
2024/03/23 10:15:55;;;;;;;;;;;;;;;9.70;54.91;97265.19;5046659;28;19934;-77
2024/03/23 10:18:22;;;;;;;;;;;;;;;9.74;54.78;97276.19;5055590;28;19929;-78
2024/03/23 10:20:51;;;;;;;;;;;;;;;9.75;54.10;97275.09;5047799;28;19928;-83
2024/03/23 10:23:17;;;;;;;;;;;;;;;9.59;54.24;97274.00;5046839;28;19925;-93
2024/03/23 10:25:45;;;;;;;;;;;;;;;9.59;54.12;97274.00;5064372;28;20396;-92
2024/03/23 10:28:11;;;;;;;;;;;;;;;9.66;54.49;97266.16;5046298;28;19924;-83
2024/03/23 10:30:38;;;;;;;;;;;;;;;9.82;54.21;97269.97;5030543;28;19931;-83
2024/03/23 10:33:08;;;;;;;;;;;;;;;9.84;54.19;97280.47;5050687;28;19963;-80
2024/03/23 10:35:35;;;;;;;;;;;;;;;9.51;55.38;97286.41;5043418;28;19931;-83
2024/03/23 10:38:03;;;;;;;;;;;;;;;9.59;54.72;97301.13;5026963;28;19925;-81
2024/03/23 10:40:30;;;;;;;;;;;;;;;9.68;54.46;97307.31;5040107;28;19932;-88
2024/03/23 10:42:56;;;;;;;;;;;;;;;9.84;53.25;97321.97;5047624;28;19936;-92
2024/03/23 10:45:23;;;;;;;;;;;;;;;10.02;52.11;97306.50;5029881;28;20015;-86
2024/03/23 10:47:49;;;;;;;;;;;;;;;9.95;51.71;97287.97;5038030;28;20402;-85
2024/03/23 10:50:16;;;;;;;;;;;;;;;9.95;51.44;97282.53;5036370;28;19928;-84
2024/03/23 10:52:42;;;;;;;;;;;;;;;9.67;51.82;97294.88;5081275;28;19928;-86
2024/03/23 10:55:11;;;;;;;;;;;;;;;9.75;51.88;97287.84;5044583;28;19995;-84
2024/03/23 10:57:39;;;;;;;;;;;;;;;9.67;51.30;97313.84;5051001;28;19982;-86
2024/03/23 11:00:07;;;;;;;;;;;;;;;9.65;51.94;97335.88;5044980;28;19979;-85
2024/03/23 11:02:33;;;;;;;;;;;;;;;9.78;52.62;97325.19;5032993;28;19933;-84
2024/03/23 11:05:00;;;;;;;;;;;;;;;9.74;52.17;97325.00;5057950;28;19974;-75
2024/03/23 11:07:30;;;;;;;;;;;;;;;9.62;50.64;97314.00;5048788;28;19928;-77
2024/03/23 11:09:57;;;;;;;;;;;;;;;9.62;50.66;97306.66;5063430;28;20423;-89
2024/03/23 11:12:28;;;;;;;;;;;;;;;9.76;50.74;97311.16;5031851;28;19924;-84
2024/03/23 11:14:55;;;;;;;;;;;;;;;9.85;50.18;97298.34;5055920;28;19955;-85
2024/03/23 11:17:21;;;;;;;;;;;;;;;9.91;50.15;97297.88;5052409;28;19982;-76
2024/03/23 11:19:54;;;;;;;;;;;;;;;9.85;49.18;97304.56;5063090;28;19928;-77
2024/03/23 11:22:35;;;;;;;;;;;;;;;9.65;47.58;97307.97;5041009;28;19925;-76
2024/03/23 11:25:02;;;;;;;;;;;;;;;9.64;48.48;97309.06;5041868;28;19924;-81
2024/03/23 11:27:30;;;;;;;;;;;;;;;9.77;48.25;97291.84;5058691;28;19929;-77
2024/03/23 11:30:10;;;;;;;;;;;;;;;9.87;48.18;97301.56;5061108;28;19932;-77
2024/03/23 11:32:35;;;;;;;;;;;;;;;9.79;48.59;97288.78;5040026;28;20445;-77
2024/03/23 11:35:02;;;;;;;;;;;;;;;9.91;48.82;97294.38;5026678;28;20346;-76
2024/03/23 11:37:28;;;;;;;;;;;;;;;9.91;48.22;97314.16;5034852;28;20276;-86
2024/03/23 11:39:58;;;;;;;;;;;;;;;9.86;47.86;97311.63;5036295;28;19932;-83
2024/03/23 11:42:24;;;;;;;;;;;;;;;9.77;47.14;97321.66;5047319;28;19924;-82
2024/03/23 11:44:53;;;;;;;;;;;;;;;9.55;46.34;97324.56;5031962;28;20011;-84
2024/03/23 11:47:19;;;;;;;;;;;;;;;9.47;47.07;97319.91;5069861;28;19924;-86
2024/03/23 11:49:45;;;;;;;;;;;;;;;9.65;46.76;97335.09;5041071;28;20025;-93
2024/03/23 11:52:11;;;;;;;;;;;;;;;9.69;46.15;97333.31;5042160;28;19932;-84
2024/03/23 11:54:38;;;;;;;;;;;;;;;9.71;46.45;97333.81;5075133;28;20039;-85
2024/03/23 11:57:07;;;;;;;;;;;;;;;9.87;47.03;97337.63;5042732;28;19931;-85
2024/03/23 11:59:34;;;;;;;;;;;;;;;9.89;46.69;97326.44;5038477;28;20340;-84
2024/03/23 12:02:07;;;;;;;;;;;;;;;9.71;46.26;97331.88;5064649;28;19924;-85
2024/03/23 12:04:35;;;;;;;;;;;;;;;9.70;46.10;97330.28;5081547;28;19924;-85
2024/03/23 12:07:14;;;;;;;;;;;;;;;9.72;45.39;97324.53;5032471;28;19947;-84
2024/03/23 12:09:45;;;;;;;;;;;;;;;9.88;44.69;97325.66;5053493;28;19979;-85
2024/03/23 12:12:14;;;;;;;;;;;;;;;10.08;44.64;97323.41;5025063;28;19931;-84
2024/03/23 12:14:41;;;;;;;;;;;;;;;10.04;43.60;97309.66;5050287;28;20346;-85
2024/03/23 12:17:10;;;;;;;;;;;;;;;10.09;43.65;97316.84;5082565;28;19960;-86
2024/03/23 12:19:36;;;;;;;;;;;;;;;10.17;41.52;97322.28;5055433;28;19928;-86
2024/03/23 12:25:15;;;;;;;;;;;;;;;9.93;42.24;97319.25;5047085;28;19929;-86
2024/03/23 12:27:40;;;;;;;;;;;;;;;9.95;43.10;97315.09;5028654;28;19939;-82
2024/03/23 12:30:08;;;;;;;;;;;;;;;9.89;42.97;97310.97;5047972;28;20185;-82
2024/03/23 12:32:36;;;;;;;;;;;;;;;9.97;43.68;97317.50;5049866;28;19925;-82
2024/03/23 12:35:02;;;;;;;;;;;;;;;9.87;43.90;97302.34;5048076;28;19937;-81
2024/03/23 12:37:28;;;;;;;;;;;;;;;10.03;44.16;97299.16;5076959;28;19932;-80
2024/03/23 12:39:56;;;;;;;;;;;;;;;10.18;44.07;97293.22;5051812;28;19925;-81
2024/03/23 12:42:21;;;;;;;;;;;;;;;10.34;43.15;97299.72;5038447;28;19928;-81
2024/03/23 12:44:49;;;;;;;;;;;;;;;10.36;42.66;97286.63;5057542;28;20264;-81
2024/03/23 12:47:15;;;;;;;;;;;;;;;10.46;42.03;97272.69;5052209;28;19925;-85
2024/03/23 12:49:43;;;;;;;;;;;;;;;10.46;40.27;97267.25;5056897;28;20451;-85
2024/03/23 12:52:09;;;;;;;;;;;;;;;10.61;39.74;97270.56;5036817;28;19925;-84
2024/03/23 12:54:36;;;;;;;;;;;;;;;10.65;40.20;97266.88;5041138;28;19963;-85
2024/03/23 12:57:01;;;;;;;;;;;;;;;10.75;40.17;97271.09;5032387;28;19932;-84
2024/03/23 12:59:29;;;;;;;;;;;;;;;10.86;41.05;97256.03;5046110;28;19932;-84
2024/03/23 13:01:55;;;;;;;;;;;;;;;10.65;41.34;97276.91;5056698;28;19925;-85
2024/03/23 13:04:22;;;;;;;;;;;;;;;10.75;41.48;97266.47;5027125;28;20297;-85